createdAt,value
2022-09-26T00:00:42.354Z,9.681067
2022-09-26T00:01:42.403Z,9.681580
2022-09-26T00:02:42.434Z,9.682302
2022-09-26T00:03:42.320Z,9.682540
2022-09-26T00:04:42.321Z,9.682288
2022-09-26T00:05:42.335Z,9.682238
2022-09-26T00:06:42.321Z,9.682048
2022-09-26T00:07:42.288Z,9.681864
2022-09-26T00:08:42.303Z,9.681655
2022-09-26T00:09:42.277Z,9.681865
2022-09-26T00:10:42.287Z,9.681870
2022-09-26T00:11:42.252Z,9.681627
2022-09-26T00:12:42.256Z,9.681496
2022-09-26T00:13:42.256Z,9.681608
2022-09-26T00:14:42.249Z,9.682382
2022-09-26T00:15:42.226Z,9.682450
2022-09-26T00:16:42.307Z,9.681506
2022-09-26T00:17:42.235Z,9.681009
2022-09-26T00:18:42.210Z,9.680943
2022-09-26T00:19:42.245Z,9.681157
2022-09-26T00:20:42.198Z,9.681432
2022-09-26T00:21:42.188Z,9.681323
2022-09-26T00:22:42.190Z,9.681031
2022-09-26T00:23:42.176Z,9.681134
2022-09-26T00:24:42.187Z,9.681041
2022-09-26T00:25:42.199Z,9.680974
2022-09-26T00:26:42.169Z,9.681210
2022-09-26T00:27:42.150Z,9.681350
2022-09-26T00:28:42.148Z,9.681271
2022-09-26T00:29:42.138Z,9.681226
2022-09-26T00:30:42.171Z,9.681228
2022-09-26T00:31:42.147Z,9.681107
2022-09-26T00:32:42.129Z,9.680923
2022-09-26T00:33:42.112Z,9.681092
2022-09-26T00:34:42.113Z,9.681131
2022-09-26T00:35:42.106Z,9.681141
2022-09-26T00:36:42.101Z,9.680989
2022-09-26T00:37:42.185Z,9.680904
2022-09-26T00:38:42.101Z,9.680715
2022-09-26T00:39:42.079Z,9.681049
2022-09-26T00:40:42.158Z,9.681078
2022-09-26T00:41:42.069Z,9.681104
2022-09-26T00:42:42.068Z,9.680952
2022-09-26T00:43:42.074Z,9.680987
2022-09-26T00:44:42.053Z,9.681048
2022-09-26T00:45:42.092Z,9.681081
2022-09-26T00:46:42.042Z,9.681155
2022-09-26T00:47:42.028Z,9.681234
2022-09-26T00:48:42.048Z,9.681172
2022-09-26T00:49:42.014Z,9.681179
2022-09-26T00:50:42.018Z,9.680955
2022-09-26T00:51:41.994Z,9.680934
2022-09-26T00:52:42.003Z,9.681260
2022-09-26T00:53:41.988Z,9.681194
2022-09-26T00:54:42.010Z,9.681105
2022-09-26T00:55:41.970Z,9.681265
2022-09-26T00:56:41.967Z,9.681077
2022-09-26T00:57:41.954Z,9.681105
2022-09-26T00:58:41.950Z,9.681180
2022-09-26T00:59:41.970Z,9.681204
2022-09-26T01:00:42.483Z,9.681241
2022-09-26T01:01:42.120Z,9.681253
2022-09-26T01:02:41.987Z,9.681414
2022-09-26T01:03:41.944Z,9.681233
2022-09-26T01:04:41.914Z,9.681069
2022-09-26T01:05:41.899Z,9.681085
2022-09-26T01:06:41.928Z,9.680961
2022-09-26T01:07:41.923Z,9.681032
2022-09-26T01:08:41.907Z,9.681158
2022-09-26T01:09:41.893Z,9.681164
2022-09-26T01:10:41.875Z,9.681320
2022-09-26T01:11:41.883Z,9.681525
2022-09-26T01:12:41.867Z,9.681611
2022-09-26T01:13:41.851Z,9.681776
2022-09-26T01:14:41.840Z,9.681640
2022-09-26T01:15:41.856Z,9.681269
2022-09-26T01:16:41.878Z,9.681267
2022-09-26T01:17:41.827Z,9.681182
2022-09-26T01:18:41.843Z,9.680987
2022-09-26T01:19:41.815Z,9.681036
2022-09-26T01:20:41.809Z,9.681097
2022-09-26T01:21:41.817Z,9.681137
2022-09-26T01:22:41.793Z,9.681190
2022-09-26T01:23:41.810Z,9.681193
2022-09-26T01:24:41.776Z,9.681484
2022-09-26T01:25:41.773Z,9.681293
2022-09-26T01:26:41.795Z,9.681357
2022-09-26T01:27:41.767Z,9.681561
2022-09-26T01:28:41.780Z,9.681437
2022-09-26T01:29:41.744Z,9.680929
2022-09-26T01:30:41.795Z,9.681237
2022-09-26T01:31:41.739Z,9.681787
2022-09-26T01:32:41.736Z,9.681264
2022-09-26T01:33:41.721Z,9.681026
2022-09-26T01:34:41.740Z,9.681109
2022-09-26T01:35:41.708Z,9.681066
2022-09-26T01:36:41.707Z,9.681257
2022-09-26T01:37:41.694Z,9.681060
2022-09-26T01:38:41.687Z,9.681011
2022-09-26T01:39:41.680Z,9.681127
2022-09-26T01:40:41.758Z,9.681073
2022-09-26T01:41:41.683Z,9.681076
2022-09-26T01:42:41.663Z,9.680863
2022-09-26T01:43:41.651Z,9.680716
2022-09-26T01:44:41.642Z,9.680472
2022-09-26T01:45:41.720Z,9.680766
2022-09-26T01:46:41.666Z,9.681085
2022-09-26T01:47:41.623Z,9.681124
2022-09-26T01:48:41.625Z,9.681006
2022-09-26T01:49:41.633Z,9.680936
2022-09-26T01:50:41.614Z,9.681291
2022-09-26T01:51:41.626Z,9.680780
2022-09-26T01:52:41.626Z,9.681303
2022-09-26T01:53:41.590Z,9.681040
2022-09-26T01:54:41.588Z,9.680928
2022-09-26T01:55:41.577Z,9.680458
2022-09-26T01:56:41.569Z,9.680638
2022-09-26T01:57:41.564Z,9.679908
2022-09-26T01:58:41.581Z,9.680429
2022-09-26T01:59:41.548Z,9.680411
2022-09-26T02:00:41.571Z,9.679891
2022-09-26T02:01:41.620Z,9.680502
2022-09-26T02:02:41.605Z,9.680863
2022-09-26T02:03:41.525Z,9.680431
2022-09-26T02:04:41.530Z,9.680147
2022-09-26T02:05:41.542Z,9.680259
2022-09-26T02:06:41.513Z,9.680399
2022-09-26T02:07:41.507Z,9.680565
2022-09-26T02:08:41.502Z,9.680431
2022-09-26T02:09:41.500Z,9.680355
2022-09-26T02:10:41.537Z,9.680268
2022-09-26T02:11:41.487Z,9.680093
2022-09-26T02:12:41.492Z,9.679884
2022-09-26T02:13:41.480Z,9.680148
2022-09-26T02:14:41.465Z,9.680344
2022-09-26T02:15:41.455Z,9.680427
2022-09-26T02:16:41.550Z,9.680287
2022-09-26T02:17:41.452Z,9.680811
2022-09-26T02:18:41.439Z,9.681023
2022-09-26T02:19:41.437Z,9.680757
2022-09-26T02:20:41.430Z,9.681045
2022-09-26T02:21:41.438Z,9.681627
2022-09-26T02:22:41.417Z,9.681035
2022-09-26T02:23:41.409Z,9.681169
2022-09-26T02:24:41.414Z,9.681228
2022-09-26T02:25:41.425Z,9.681189
2022-09-26T02:26:41.391Z,9.681082
2022-09-26T02:27:41.420Z,9.680987
2022-09-26T02:28:41.376Z,9.681005
2022-09-26T02:29:41.373Z,9.680874
2022-09-26T02:30:41.361Z,9.680875
2022-09-26T02:31:41.434Z,9.681005
2022-09-26T02:32:41.348Z,9.681116
2022-09-26T02:33:41.343Z,9.681144
2022-09-26T02:34:41.335Z,9.681156
2022-09-26T02:35:41.341Z,9.681181
2022-09-26T02:36:41.342Z,9.680923
2022-09-26T02:37:41.345Z,9.681278
2022-09-26T02:38:41.312Z,9.681258
2022-09-26T02:39:41.320Z,9.681611
2022-09-26T02:40:41.370Z,9.681401
2022-09-26T02:41:41.313Z,9.681359
2022-09-26T02:42:41.301Z,9.680961
2022-09-26T02:43:41.295Z,9.681334
2022-09-26T02:44:41.285Z,9.681251
2022-09-26T02:45:41.366Z,9.681239
2022-09-26T02:46:41.284Z,9.681270
2022-09-26T02:47:41.286Z,9.681019
2022-09-26T02:48:41.255Z,9.681067
2022-09-26T02:49:41.263Z,9.681361
2022-09-26T02:50:41.261Z,9.681088
2022-09-26T02:51:41.277Z,9.681464
2022-09-26T02:52:41.257Z,9.681053
2022-09-26T02:53:41.254Z,9.681097
2022-09-26T02:54:41.232Z,9.681165
2022-09-26T02:55:41.226Z,9.681312
2022-09-26T02:56:41.234Z,9.681318
2022-09-26T02:57:41.208Z,9.681073
2022-09-26T02:58:41.234Z,9.681054
2022-09-26T02:59:41.215Z,9.681016
2022-09-26T03:00:41.230Z,9.681103
2022-09-26T03:01:41.352Z,9.680961
2022-09-26T03:02:41.176Z,9.681204
2022-09-26T03:03:41.213Z,9.681247
2022-09-26T03:04:41.254Z,9.680951
2022-09-26T03:05:41.165Z,9.681215
2022-09-26T03:06:41.173Z,9.681402
2022-09-26T03:07:41.151Z,9.681403
2022-09-26T03:08:41.185Z,9.681528
2022-09-26T03:09:41.142Z,9.681493
2022-09-26T03:10:41.138Z,9.681417
2022-09-26T03:11:41.128Z,9.681394
2022-09-26T03:12:41.133Z,9.681363
2022-09-26T03:13:41.111Z,9.681186
2022-09-26T03:14:41.143Z,9.680938
2022-09-26T03:15:41.100Z,9.681078
2022-09-26T03:16:41.170Z,9.681412
2022-09-26T03:17:41.101Z,9.681363
2022-09-26T03:18:41.087Z,9.681374
2022-09-26T03:19:41.089Z,9.681026
2022-09-26T03:20:41.102Z,9.680868
2022-09-26T03:21:41.074Z,9.681016
2022-09-26T03:22:41.068Z,9.681040
2022-09-26T03:23:41.053Z,9.681036
2022-09-26T03:24:41.059Z,9.681150
2022-09-26T03:25:41.060Z,9.680655
2022-09-26T03:26:41.041Z,9.680691
2022-09-26T03:27:41.033Z,9.680712
2022-09-26T03:28:41.032Z,9.680917
2022-09-26T03:29:41.017Z,9.681112
2022-09-26T03:30:41.012Z,9.680946
2022-09-26T03:31:41.056Z,9.680842
2022-09-26T03:32:40.999Z,9.680851
2022-09-26T03:33:41.034Z,9.680851
2022-09-26T03:34:40.994Z,9.681149
2022-09-26T03:35:40.997Z,9.681634
2022-09-26T03:36:40.996Z,9.681517
2022-09-26T03:37:40.992Z,9.681462
2022-09-26T03:38:40.970Z,9.681357
2022-09-26T03:39:40.964Z,9.681035
2022-09-26T03:40:41.022Z,9.681056
2022-09-26T03:41:40.963Z,9.680792
2022-09-26T03:42:40.986Z,9.681040
2022-09-26T03:43:40.941Z,9.681020
2022-09-26T03:44:40.944Z,9.681073
2022-09-26T03:45:40.973Z,9.681086
2022-09-26T03:46:40.922Z,9.681136
2022-09-26T03:47:40.917Z,9.681659
2022-09-26T03:48:40.946Z,9.681614
2022-09-26T03:49:40.918Z,9.681459
2022-09-26T03:50:40.929Z,9.681429
2022-09-26T03:51:40.893Z,9.681342
2022-09-26T03:52:40.898Z,9.681157
2022-09-26T03:53:40.889Z,9.681049
2022-09-26T03:54:40.898Z,9.680779
2022-09-26T03:55:40.884Z,9.681266
2022-09-26T03:56:40.861Z,9.681206
2022-09-26T03:57:40.849Z,9.680945
2022-09-26T03:58:40.850Z,9.681093
2022-09-26T03:59:40.835Z,9.681206
2022-09-26T04:00:40.900Z,9.680871
2022-09-26T04:01:40.873Z,9.680851
2022-09-26T04:02:40.868Z,9.680813
2022-09-26T04:03:40.815Z,9.681183
2022-09-26T04:04:40.827Z,9.680966
2022-09-26T04:05:40.809Z,9.681064
2022-09-26T04:06:40.811Z,9.680916
2022-09-26T04:07:40.813Z,9.680983
2022-09-26T04:08:40.793Z,9.681170
2022-09-26T04:09:40.784Z,9.681016
2022-09-26T04:10:40.778Z,9.681062
2022-09-26T04:11:40.777Z,9.681135
2022-09-26T04:12:40.779Z,9.681525
2022-09-26T04:13:51.278Z,9.681515
2022-09-26T04:14:41.757Z,9.681428
2022-09-26T04:15:40.745Z,9.681300
2022-09-26T04:16:40.816Z,9.681050
2022-09-26T04:17:40.735Z,9.681195
2022-09-26T04:18:40.732Z,9.681334
2022-09-26T04:19:40.742Z,9.681232
2022-09-26T04:20:40.718Z,9.681132
2022-09-26T04:21:40.730Z,9.681171
2022-09-26T04:22:40.714Z,9.681140
2022-09-26T04:23:40.695Z,9.681222
2022-09-26T04:24:40.699Z,9.681422
2022-09-26T04:25:40.695Z,9.680917
2022-09-26T04:26:40.675Z,9.681464
2022-09-26T04:27:40.709Z,9.681532
2022-09-26T04:28:40.680Z,9.681122
2022-09-26T04:29:40.662Z,9.680988
2022-09-26T04:30:40.659Z,9.680982
2022-09-26T04:31:40.687Z,9.681182
2022-09-26T04:32:40.653Z,9.681095
2022-09-26T04:33:40.670Z,9.681322
2022-09-26T04:34:40.645Z,9.681621
2022-09-26T04:35:40.633Z,9.681538
2022-09-26T04:36:47.644Z,9.681252
2022-09-26T04:37:40.627Z,9.681158
2022-09-26T04:38:40.621Z,9.681018
2022-09-26T04:39:40.631Z,9.681080
2022-09-26T04:40:42.834Z,9.681360
2022-09-26T04:41:40.608Z,9.681254
2022-09-26T04:42:40.597Z,9.681190
2022-09-26T04:43:40.602Z,9.681355
2022-09-26T04:44:40.607Z,9.681126
2022-09-26T04:45:40.647Z,9.680931
2022-09-26T04:46:40.589Z,9.681402
2022-09-26T04:47:40.576Z,9.681286
2022-09-26T04:48:40.569Z,9.681298
2022-09-26T04:49:40.581Z,9.681261
2022-09-26T04:50:40.551Z,9.680926
2022-09-26T04:51:40.553Z,9.680874
2022-09-26T04:52:40.574Z,9.680514
2022-09-26T04:53:40.538Z,9.681045
2022-09-26T04:54:40.528Z,9.681044
2022-09-26T04:55:40.515Z,9.680797
2022-09-26T04:56:40.557Z,9.680947
2022-09-26T04:57:40.518Z,9.681024
2022-09-26T04:58:40.499Z,9.681136
2022-09-26T04:59:40.494Z,9.680819
2022-09-26T05:00:40.542Z,9.681162
2022-09-26T05:01:40.609Z,9.681663
2022-09-26T05:02:40.539Z,9.681393
2022-09-26T05:03:40.466Z,9.681146
2022-09-26T05:04:40.483Z,9.681365
2022-09-26T05:05:40.465Z,9.681785
2022-09-26T05:06:40.463Z,9.681807
2022-09-26T05:07:40.457Z,9.681404
2022-09-26T05:08:40.463Z,9.680963
2022-09-26T05:09:40.462Z,9.681440
2022-09-26T05:10:40.433Z,9.681077
2022-09-26T05:11:40.429Z,9.681070
2022-09-26T05:12:40.430Z,9.681517
2022-09-26T05:13:40.419Z,9.681520
2022-09-26T05:14:40.419Z,9.681274
2022-09-26T05:15:40.432Z,9.681351
2022-09-26T05:16:40.445Z,9.681215
2022-09-26T05:17:40.401Z,9.681370
2022-09-26T05:18:40.410Z,9.681301
2022-09-26T05:19:40.381Z,9.681273
2022-09-26T05:20:40.379Z,9.681330
2022-09-26T05:21:40.394Z,9.681134
2022-09-26T05:22:40.382Z,9.681251
2022-09-26T05:23:44.606Z,9.681089
2022-09-26T05:24:40.368Z,9.681062
2022-09-26T05:25:40.346Z,9.681114
2022-09-26T05:26:40.348Z,9.681291
2022-09-26T05:27:40.351Z,9.681366
2022-09-26T05:28:40.339Z,9.681060
2022-09-26T05:29:40.333Z,9.680811
2022-09-26T05:30:40.362Z,9.680749
2022-09-26T05:31:40.390Z,9.680364
2022-09-26T05:32:40.328Z,9.680773
2022-09-26T05:33:40.308Z,9.680446
2022-09-26T05:34:40.297Z,9.680071
2022-09-26T05:35:40.292Z,9.680368
2022-09-26T05:36:40.291Z,9.680762
2022-09-26T05:37:40.288Z,9.680519
2022-09-26T05:38:40.294Z,9.681289
2022-09-26T05:39:42.428Z,9.681297
2022-09-26T05:40:40.313Z,9.680180
2022-09-26T05:41:40.241Z,9.681375
2022-09-26T05:42:40.240Z,9.681829
2022-09-26T05:43:40.257Z,9.681775
2022-09-26T05:44:40.254Z,9.682612
2022-09-26T05:45:40.241Z,9.682729
2022-09-26T05:46:40.286Z,9.682160
2022-09-26T05:47:40.220Z,9.681409
2022-09-26T05:48:40.216Z,9.681431
2022-09-26T05:49:40.242Z,9.681591
2022-09-26T05:50:43.472Z,9.681593
2022-09-26T05:51:40.180Z,9.681093
2022-09-26T05:52:40.186Z,9.681365
2022-09-26T05:53:40.173Z,9.681257
2022-09-26T05:54:40.169Z,9.681258
2022-09-26T05:55:40.184Z,9.681593
2022-09-26T05:56:40.241Z,9.681305
2022-09-26T05:57:40.176Z,9.681400
2022-09-26T05:58:40.139Z,9.681500
2022-09-26T05:59:40.127Z,9.681429
2022-09-26T06:00:40.207Z,9.681237
2022-09-26T06:01:40.205Z,9.681900
2022-09-26T06:02:40.148Z,9.681783
2022-09-26T06:03:40.132Z,9.681785
2022-09-26T06:04:40.109Z,9.681641
2022-09-26T06:05:40.097Z,9.681899
2022-09-26T06:06:40.093Z,9.681847
2022-09-26T06:07:40.094Z,9.681624
2022-09-26T06:08:40.102Z,9.681251
2022-09-26T06:09:40.093Z,9.681273
2022-09-26T06:10:40.069Z,9.681338
2022-09-26T06:11:40.057Z,9.681663
2022-09-26T06:12:40.127Z,9.681170
2022-09-26T06:13:40.066Z,9.680984
2022-09-26T06:14:40.069Z,9.680883
2022-09-26T06:15:40.039Z,9.681211
2022-09-26T06:16:40.105Z,9.680845
2022-09-26T06:17:40.023Z,9.681153
2022-09-26T06:18:40.018Z,9.680773
2022-09-26T06:19:40.017Z,9.680922
2022-09-26T06:20:40.042Z,9.680964
2022-09-26T06:21:40.020Z,9.681003
2022-09-26T06:22:40.018Z,9.680973
2022-09-26T06:23:40.011Z,9.680908
2022-09-26T06:24:40.030Z,9.681002
2022-09-26T06:25:39.990Z,9.681725
2022-09-26T06:26:39.978Z,9.681474
2022-09-26T06:27:39.971Z,9.680911
2022-09-26T06:28:39.997Z,9.680817
2022-09-26T06:29:39.954Z,9.681130
2022-09-26T06:30:39.978Z,9.681158
2022-09-26T06:31:40.034Z,9.681688
2022-09-26T06:32:39.945Z,9.681282
2022-09-26T06:33:39.942Z,9.681224
2022-09-26T06:34:39.967Z,9.681314
2022-09-26T06:35:39.939Z,9.680983
2022-09-26T06:36:39.929Z,9.681116
2022-09-26T06:37:39.917Z,9.681319
2022-09-26T06:38:39.927Z,9.681581
2022-09-26T06:39:39.903Z,9.681332
2022-09-26T06:40:39.942Z,9.681130
2022-09-26T06:41:39.897Z,9.681038
2022-09-26T06:42:39.894Z,9.681113
2022-09-26T06:43:39.878Z,9.681043
2022-09-26T06:44:39.999Z,9.680861
2022-09-26T06:45:39.873Z,9.680764
2022-09-26T06:46:39.892Z,9.680606
2022-09-26T06:47:39.862Z,9.681502
2022-09-26T06:48:39.854Z,9.681460
2022-09-26T06:49:39.837Z,9.681172
2022-09-26T06:50:39.854Z,9.680874
2022-09-26T06:51:39.832Z,9.680826
2022-09-26T06:52:39.832Z,9.680882
2022-09-26T06:53:39.809Z,9.681211
2022-09-26T06:54:39.806Z,9.681040
2022-09-26T06:55:39.799Z,9.681133
2022-09-26T06:56:39.822Z,9.681380
2022-09-26T06:57:39.789Z,9.680951
2022-09-26T06:58:39.806Z,9.681205
2022-09-26T06:59:39.795Z,9.681134
2022-09-26T07:00:39.937Z,9.681164
2022-09-26T07:01:39.940Z,9.680979
2022-09-26T07:02:39.797Z,9.681153
2022-09-26T07:03:45.181Z,9.681152
2022-09-26T07:04:40.751Z,9.681121
2022-09-26T07:05:39.761Z,9.681308
2022-09-26T07:06:39.767Z,9.681222
2022-09-26T07:07:39.725Z,9.681045
2022-09-26T07:09:00.788Z,9.680940
2022-09-26T07:09:40.727Z,9.681215
2022-09-26T07:10:39.708Z,9.681192
2022-09-26T07:11:56.636Z,9.681060
2022-09-26T07:12:40.723Z,9.681067
2022-09-26T07:13:39.699Z,9.681076
2022-09-26T07:14:39.685Z,9.681189
2022-09-26T07:15:39.679Z,9.681060
2022-09-26T07:16:39.715Z,9.680881
2022-09-26T07:17:39.672Z,9.681286
2022-09-26T07:18:39.692Z,9.681175
2022-09-26T07:19:39.657Z,9.681169
2022-09-26T07:20:39.658Z,9.681364
2022-09-26T07:21:39.684Z,9.681468
2022-09-26T07:22:39.662Z,9.681396
2022-09-26T07:23:39.632Z,9.681264
2022-09-26T07:24:39.640Z,9.681202
2022-09-26T07:25:39.651Z,9.680837
2022-09-26T07:26:39.617Z,9.681240
2022-09-26T07:27:39.602Z,9.681086
2022-09-26T07:28:39.600Z,9.681124
2022-09-26T07:29:39.611Z,9.681074
2022-09-26T07:30:39.592Z,9.680685
2022-09-26T07:31:39.661Z,9.680840
2022-09-26T07:32:39.585Z,9.680646
2022-09-26T07:33:39.584Z,9.680457
2022-09-26T07:34:39.568Z,9.681129
2022-09-26T07:35:39.579Z,9.681019
2022-09-26T07:36:39.576Z,9.681130
2022-09-26T07:37:39.570Z,9.681008
2022-09-26T07:38:39.569Z,9.681181
2022-09-26T07:39:39.531Z,9.681086
2022-09-26T07:40:39.565Z,9.681318
2022-09-26T07:41:39.541Z,9.681375
2022-09-26T07:42:39.503Z,9.681422
2022-09-26T07:45:39.510Z,9.681072
2022-09-26T07:46:39.562Z,9.681010
2022-09-26T07:47:39.481Z,9.680863
2022-09-26T07:48:39.480Z,9.680722
2022-09-26T07:49:39.464Z,9.680815
2022-09-26T07:50:39.467Z,9.680768
2022-09-26T07:51:39.466Z,9.680406
2022-09-26T07:52:39.467Z,9.680730
2022-09-26T07:53:39.459Z,9.681107
2022-09-26T07:54:39.433Z,9.681116
2022-09-26T07:55:39.422Z,9.680949
2022-09-26T07:56:39.424Z,9.681134
2022-09-26T07:57:39.439Z,9.681080
2022-09-26T07:58:39.414Z,9.681389
2022-09-26T07:59:39.404Z,9.681289
2022-09-26T08:00:39.394Z,9.681139
2022-09-26T08:01:39.482Z,9.681401
2022-09-26T08:02:39.420Z,9.681431
2022-09-26T08:03:39.372Z,9.680833
2022-09-26T08:04:39.525Z,9.680989
2022-09-26T08:05:39.354Z,9.681127
2022-09-26T08:06:39.344Z,9.681073
2022-09-26T08:07:39.336Z,9.680829
2022-09-26T08:08:39.338Z,9.681223
2022-09-26T08:09:39.326Z,9.680388
2022-09-26T08:10:39.350Z,9.680440
2022-09-26T08:11:39.304Z,9.681075
2022-09-26T08:12:39.305Z,9.681838
2022-09-26T08:13:39.295Z,9.681686
2022-09-26T08:14:39.294Z,9.681190
2022-09-26T08:15:39.371Z,9.681196
2022-09-26T08:16:39.339Z,9.680705
2022-09-26T08:17:39.267Z,9.681005
2022-09-26T08:18:39.255Z,9.681405
2022-09-26T08:19:39.254Z,9.681114
2022-09-26T08:20:39.237Z,9.681390
2022-09-26T08:21:39.272Z,9.681561
2022-09-26T08:22:39.222Z,9.681067
2022-09-26T08:23:39.211Z,9.681842
2022-09-26T08:24:39.215Z,9.680883
2022-09-26T08:25:39.197Z,9.680819
2022-09-26T08:26:43.928Z,9.681081
2022-09-26T08:27:40.203Z,9.681382
2022-09-26T08:28:39.207Z,9.680914
2022-09-26T08:29:39.175Z,9.680867
2022-09-26T08:30:39.154Z,9.680689
2022-09-26T08:31:39.198Z,9.680983
2022-09-26T08:32:39.131Z,9.680918
2022-09-26T08:33:39.134Z,9.680750
2022-09-26T08:34:39.140Z,9.680779
2022-09-26T08:35:39.107Z,9.681057
2022-09-26T08:36:39.093Z,9.681316
2022-09-26T08:37:39.087Z,9.680788
2022-09-26T08:38:39.133Z,9.680906
2022-09-26T08:39:39.066Z,9.680964
2022-09-26T08:40:39.139Z,9.681087
2022-09-26T08:41:39.049Z,9.681199
2022-09-26T08:42:39.079Z,9.681075
2022-09-26T08:43:39.041Z,9.680935
2022-09-26T08:44:39.059Z,9.681363
2022-09-26T08:45:39.025Z,9.680973
2022-09-26T08:46:39.094Z,9.680957
2022-09-26T08:47:39.013Z,9.681085
2022-09-26T08:48:39.014Z,9.680932
2022-09-26T08:49:39.019Z,9.681134
2022-09-26T08:50:38.989Z,9.681186
2022-09-26T08:51:38.979Z,9.681475
2022-09-26T08:52:38.987Z,9.681417
2022-09-26T08:53:38.986Z,9.681355
2022-09-26T08:54:38.954Z,9.681198
2022-09-26T08:55:38.951Z,9.681110
2022-09-26T08:56:38.932Z,9.681114
2022-09-26T08:57:38.950Z,9.681082
2022-09-26T08:58:38.958Z,9.681118
2022-09-26T08:59:38.920Z,9.681087
2022-09-26T09:00:38.911Z,9.681258
2022-09-26T09:01:39.076Z,9.680971
2022-09-26T09:02:39.120Z,9.681065
2022-09-26T09:03:38.913Z,9.681181
2022-09-26T09:04:38.874Z,9.681100
2022-09-26T09:05:38.866Z,9.681231
2022-09-26T09:06:38.864Z,9.681221
2022-09-26T09:07:38.867Z,9.681055
2022-09-26T09:08:38.836Z,9.680998
2022-09-26T09:09:38.862Z,9.681075
2022-09-26T09:10:38.870Z,9.680985
2022-09-26T09:11:38.817Z,9.681087
2022-09-26T09:12:38.803Z,9.681236
2022-09-26T09:13:38.794Z,9.681038
2022-09-26T09:14:38.799Z,9.681160
2022-09-26T09:15:38.817Z,9.681017
2022-09-26T09:16:38.806Z,9.680831
2022-09-26T09:17:38.766Z,9.680911
2022-09-26T09:18:38.779Z,9.681082
2022-09-26T09:19:38.741Z,9.681239
2022-09-26T09:20:38.751Z,9.681266
2022-09-26T09:21:41.814Z,9.681220
2022-09-26T09:22:38.766Z,9.681241
2022-09-26T09:23:38.721Z,9.681229
2022-09-26T09:24:38.705Z,9.681165
2022-09-26T09:25:38.704Z,9.681124
2022-09-26T09:27:55.459Z,9.680764
2022-09-26T09:28:39.689Z,9.680798
2022-09-26T09:29:38.683Z,9.681064
2022-09-26T09:30:38.670Z,9.681239
2022-09-26T09:31:38.701Z,9.681079
2022-09-26T09:32:38.643Z,9.680857
2022-09-26T09:33:38.667Z,9.681008
2022-09-26T09:34:38.617Z,9.680984
2022-09-26T09:35:38.627Z,9.681396
2022-09-26T09:36:38.620Z,9.680929
2022-09-26T09:37:38.600Z,9.681017
2022-09-26T09:38:38.615Z,9.681126
2022-09-26T09:39:38.576Z,9.681185
2022-09-26T09:40:38.648Z,9.680843
2022-09-26T09:41:38.574Z,9.681066
2022-09-26T09:42:38.565Z,9.681013
2022-09-26T09:43:38.567Z,9.681292
2022-09-26T09:44:41.946Z,9.680927
2022-09-26T09:45:38.536Z,9.681289
2022-09-26T09:46:38.586Z,9.681633
2022-09-26T09:47:38.516Z,9.680882
2022-09-26T09:48:38.494Z,9.681026
2022-09-26T09:49:38.485Z,9.681185
2022-09-26T09:50:38.480Z,9.681090
2022-09-26T09:51:39.615Z,9.681191
2022-09-26T09:52:38.453Z,9.681528
2022-09-26T09:53:38.442Z,9.681399
2022-09-26T09:54:38.451Z,9.681417
2022-09-26T09:55:38.434Z,9.681524
2022-09-26T09:56:38.428Z,9.681361
2022-09-26T09:57:38.508Z,9.681348
2022-09-26T09:58:38.424Z,9.681437
2022-09-26T09:59:38.401Z,9.681260
2022-09-26T10:00:38.388Z,9.681468
2022-09-26T10:01:38.385Z,9.681364
2022-09-26T10:02:38.459Z,9.681318
2022-09-26T10:03:38.389Z,9.681177
2022-09-26T10:04:38.363Z,9.681252
2022-09-26T10:05:38.370Z,9.681212
2022-09-26T10:06:46.189Z,9.681348
2022-09-26T10:07:39.356Z,9.681464
2022-09-26T10:08:38.350Z,9.681303
2022-09-26T10:09:39.991Z,9.681492
2022-09-26T10:10:38.310Z,9.681561
2022-09-26T10:11:38.294Z,9.681316
2022-09-26T10:12:38.300Z,9.681660
2022-09-26T10:13:38.278Z,9.681455
2022-09-26T10:14:38.287Z,9.681023
2022-09-26T10:15:38.294Z,9.681334
2022-09-26T10:16:38.263Z,9.681397
2022-09-26T10:17:38.294Z,9.681401
2022-09-26T10:18:38.230Z,9.680975
2022-09-26T10:19:38.230Z,9.681491
2022-09-26T10:20:38.221Z,9.680987
2022-09-26T10:21:38.216Z,9.680996
2022-09-26T10:22:38.206Z,9.681536
2022-09-26T10:23:38.226Z,9.681193
2022-09-26T10:24:38.188Z,9.680938
2022-09-26T10:25:38.178Z,9.680777
2022-09-26T10:26:38.176Z,9.680907
2022-09-26T10:27:38.292Z,9.680759
2022-09-26T10:28:38.232Z,9.680921
2022-09-26T10:29:38.214Z,9.680822
2022-09-26T10:30:38.142Z,9.681117
2022-09-26T10:31:42.359Z,9.681131
2022-09-26T10:32:38.127Z,9.681624
2022-09-26T10:33:38.113Z,9.680922
2022-09-26T10:34:38.117Z,9.681392
2022-09-26T10:35:38.119Z,9.681267
2022-09-26T10:36:38.089Z,9.681238
2022-09-26T10:37:38.786Z,9.681459
2022-09-26T10:38:38.075Z,9.681232
2022-09-26T10:39:38.086Z,9.680639
2022-09-26T10:40:38.092Z,9.680977
2022-09-26T10:41:38.035Z,9.681317
2022-09-26T10:42:38.044Z,9.681201
2022-09-26T10:43:38.072Z,9.680979
2022-09-26T10:44:38.011Z,9.681196
2022-09-26T10:45:38.037Z,9.681141
2022-09-26T10:46:38.056Z,9.681138
2022-09-26T10:47:37.992Z,9.681462
2022-09-26T10:48:37.990Z,9.681417
2022-09-26T10:49:38.010Z,9.681669
2022-09-26T10:50:37.964Z,9.681141
2022-09-26T10:51:37.959Z,9.681265
2022-09-26T10:52:37.950Z,9.681409
2022-09-26T10:53:37.957Z,9.680776
2022-09-26T10:54:37.931Z,9.680903
2022-09-26T10:55:37.946Z,9.681222
2022-09-26T10:56:37.918Z,9.681080
2022-09-26T10:57:37.904Z,9.681503
2022-09-26T10:58:37.901Z,9.681494
2022-09-26T10:59:37.883Z,9.681160
2022-09-26T11:00:37.919Z,9.680981
2022-09-26T11:01:37.966Z,9.680670
2022-09-26T11:02:37.874Z,9.680686
2022-09-26T11:03:37.894Z,9.680969
2022-09-26T11:04:37.875Z,9.681213
2022-09-26T11:05:37.851Z,9.681335
2022-09-26T11:06:37.837Z,9.681502
2022-09-26T11:07:37.835Z,9.682160
2022-09-26T11:08:37.827Z,9.681467
2022-09-26T11:09:37.793Z,9.681932
2022-09-26T11:10:37.829Z,9.681280
2022-09-26T11:11:37.797Z,9.681142
2022-09-26T11:12:37.798Z,9.681473
2022-09-26T11:13:37.796Z,9.680854
2022-09-26T11:14:37.763Z,9.680612
2022-09-26T11:15:37.816Z,9.680768
2022-09-26T11:16:37.866Z,9.680832
2022-09-26T11:17:37.737Z,9.681388
2022-09-26T11:18:37.743Z,9.681866
2022-09-26T11:19:37.703Z,9.681471
2022-09-26T11:20:37.716Z,9.682091
2022-09-26T11:21:37.708Z,9.681228
2022-09-26T11:22:37.695Z,9.681065
2022-09-26T11:23:37.677Z,9.680841
2022-09-26T11:24:37.687Z,9.680557
2022-09-26T11:25:37.660Z,9.680983
2022-09-26T11:26:37.647Z,9.680994
2022-09-26T11:27:37.643Z,9.681103
2022-09-26T11:28:37.649Z,9.680997
2022-09-26T11:29:37.637Z,9.680908
2022-09-26T11:30:37.641Z,9.681064
2022-09-26T11:31:37.658Z,9.681058
2022-09-26T11:32:37.588Z,9.680817
2022-09-26T11:33:37.591Z,9.681072
2022-09-26T11:34:37.586Z,9.681033
2022-09-26T11:35:37.560Z,9.681014
2022-09-26T11:36:37.580Z,9.681010
2022-09-26T11:37:37.560Z,9.680916
2022-09-26T11:38:37.549Z,9.680915
2022-09-26T11:39:37.571Z,9.681037
2022-09-26T11:40:37.567Z,9.681156
2022-09-26T11:41:37.552Z,9.681297
2022-09-26T11:42:37.511Z,9.681297
2022-09-26T11:43:37.493Z,9.681297
2022-09-26T11:44:37.493Z,9.681282
2022-09-26T11:45:40.898Z,9.680869
2022-09-26T11:46:38.565Z,9.681448
2022-09-26T11:47:37.459Z,9.681152